Bucks Harbor, Maine
Current Conditions -  °F | °C
As of 5:15 PM on Thursday 27 Nov 2014 (Local Time) from KBHB Reporting Station
Overcast Overcast  
Wind Chill: -5°   Ceiling: 2800
Heat Index: -2°   Visibility: 10mi
Dew Point: -3°   Wind: 6mph
Humidity: 93%   Direction: 360°N
Pressure: 29.97"   Gusts: NA
Location:  44.6541°N, 67.405°W
Report Text: KBHB 272215Z AUTO 36005KT 10SM OVC028 M02/M03 A2997 RMK AO1
Loading
Personal Weather Stations






























Interactive Weather Map New forecast layout! Learn more

10-Day Weather Forecast

Advertisements
Track Severe Weather on mobile